Terminal Aerodrome Forecast
Issued by NWS

Home | Current Version | Previous Version | Text Only | Print | Product List | Glossary Off
Versions: 1 2 3 4 5 6 7 8 9 10 11 12

037
FTUS43 KBIS 280533
TAFJMS
TAF
KJMS 280533Z 2806/2906 35006KT P6SM BKN050
     FM280700 01009KT P6SM SKC
     FM290100 02006KT P6SM FEW250=

USA.gov is the U.S. government's official web portal to all federal, state and local government web resources and services.